createdAt,value
2023-04-16T00:03:16.364Z,46.83
2023-04-16T00:18:18.301Z,42.50
2023-04-16T00:33:20.092Z,39.97
2023-04-16T00:48:21.790Z,36.53
2023-04-16T01:03:31.219Z,35.10
2023-04-16T01:18:33.187Z,31.47
2023-04-16T01:33:34.881Z,28.83
2023-04-16T01:48:36.678Z,26.33
2023-04-16T02:03:38.583Z,24.10
2023-04-16T02:18:40.478Z,23.03
2023-04-16T02:33:42.156Z,20.83
2023-04-16T02:48:43.833Z,20.10
2023-04-16T03:03:45.592Z,18.10
2023-04-16T03:18:47.376Z,16.97
2023-04-16T03:33:49.016Z,15.50
2023-04-16T03:48:50.672Z,14.77
2023-04-16T04:03:52.520Z,13.93
2023-04-16T04:18:54.375Z,13.17
2023-04-16T04:33:56.120Z,12.10
2023-04-16T04:48:57.794Z,11.47
2023-04-16T05:03:59.511Z,11.57
2023-04-16T05:19:01.305Z,10.57
2023-04-16T05:34:03.028Z,9.83
2023-04-16T05:49:04.697Z,10.03
2023-04-16T06:04:06.589Z,9.10
2023-04-16T06:19:08.944Z,8.73
2023-04-16T06:34:11.064Z,9.00
2023-04-16T06:49:12.756Z,7.90
2023-04-16T07:04:14.579Z,7.90
2023-04-16T07:19:16.265Z,7.80
2023-04-16T07:34:17.995Z,7.10
2023-04-16T07:49:19.945Z,7.27
2023-04-16T08:04:21.971Z,8.07
2023-04-16T08:19:23.854Z,6.63
2023-04-16T08:34:25.680Z,6.80
2023-04-16T08:49:27.391Z,6.33
2023-04-16T09:04:29.844Z,5.93
2023-04-16T09:19:31.703Z,5.70
2023-04-16T09:34:34.557Z,6.27
2023-04-16T09:49:42.113Z,5.67
2023-04-16T10:04:50.671Z,5.73
2023-04-16T10:19:53.650Z,5.20
2023-04-16T10:34:56.156Z,5.37
2023-04-16T10:49:58.366Z,4.87
2023-04-16T11:05:02.097Z,4.97
2023-04-16T11:20:17.447Z,4.80
2023-04-16T11:35:21.519Z,5.13
2023-04-16T11:50:25.645Z,4.63
2023-04-16T12:05:33.115Z,5.10
2023-04-16T12:20:40.565Z,4.60
2023-04-16T12:35:42.555Z,4.83
2023-04-16T12:50:44.250Z,4.30
2023-04-16T13:05:46.064Z,3.90
2023-04-16T13:20:47.741Z,3.87
2023-04-16T13:35:50.405Z,3.83
2023-04-16T13:50:52.129Z,3.83
2023-04-16T14:05:53.866Z,3.83
2023-04-16T14:20:55.540Z,4.30
2023-04-16T14:35:57.203Z,3.97
2023-04-16T14:50:58.946Z,3.83
2023-04-16T15:06:00.839Z,4.00
2023-04-16T15:21:02.885Z,3.60
2023-04-16T15:36:04.815Z,3.50
2023-04-16T15:51:06.673Z,3.80
2023-04-16T16:06:08.380Z,3.90
2023-04-16T16:21:10.238Z,3.60
2023-04-16T16:36:12.782Z,3.97
2023-04-16T16:51:14.465Z,3.50
2023-04-16T17:06:20.360Z,3.77
2023-04-16T17:21:22.098Z,3.50
2023-04-16T17:36:23.790Z,5.00
2023-04-16T17:51:25.531Z,5.70
2023-04-16T18:06:27.286Z,6.13
2023-04-16T18:21:29.034Z,6.23
2023-04-16T18:36:31.157Z,7.60
2023-04-16T18:51:33.002Z,22.20
2023-04-16T19:06:35.602Z,23.33
2023-04-16T19:21:37.471Z,27.43
2023-04-16T19:36:39.276Z,30.10
2023-04-16T19:51:41.010Z,32.40
2023-04-16T20:06:42.666Z,30.87
2023-04-16T20:21:44.367Z,30.97
2023-04-16T20:36:46.106Z,30.07
2023-04-16T20:51:47.825Z,31.93
2023-04-16T21:06:49.637Z,29.67
2023-04-16T21:21:51.305Z,30.03
2023-04-16T21:36:52.951Z,29.23
2023-04-16T21:51:54.653Z,27.50
2023-04-16T22:06:56.323Z,27.70
2023-04-16T22:21:58.011Z,24.50
2023-04-16T22:36:59.672Z,23.73
2023-04-16T22:52:01.427Z,20.30
2023-04-16T23:07:03.110Z,17.83
2023-04-16T23:22:04.762Z,16.07
2023-04-16T23:37:06.392Z,14.43
2023-04-16T23:52:08.160Z,12.57
